createdAt,value
2019-02-16T00:00:08.051Z,1024.80
2019-02-16T00:01:08.082Z,1024.78
2019-02-16T00:02:08.114Z,1024.75
2019-02-16T00:03:08.144Z,1024.76
2019-02-16T00:04:08.177Z,1024.78
2019-02-16T00:05:08.206Z,1024.74
2019-02-16T00:06:08.238Z,1024.74
2019-02-16T00:07:08.268Z,1024.78
2019-02-16T00:08:08.300Z,1024.75
2019-02-16T00:09:08.331Z,1024.74
2019-02-16T00:10:08.362Z,1024.75
2019-02-16T00:11:08.403Z,1024.73
2019-02-16T00:12:08.424Z,1024.73
2019-02-16T00:13:08.455Z,1024.72
2019-02-16T00:14:08.487Z,1024.72
2019-02-16T00:15:08.521Z,1024.74
2019-02-16T00:16:08.550Z,1024.77
2019-02-16T00:17:08.578Z,1024.74
2019-02-16T00:18:08.622Z,1024.71
2019-02-16T00:19:08.642Z,1024.72
2019-02-16T00:20:08.678Z,1024.71
2019-02-16T00:21:08.702Z,1024.71
2019-02-16T00:22:08.737Z,1024.67
2019-02-16T00:23:08.766Z,1024.63
2019-02-16T00:24:08.796Z,1024.64
2019-02-16T00:25:08.828Z,1024.65
2019-02-16T00:26:08.858Z,1024.57
2019-02-16T00:27:08.889Z,1024.59
2019-02-16T00:28:08.925Z,1024.57
2019-02-16T00:29:08.952Z,1024.56
2019-02-16T00:30:08.983Z,1024.60
2019-02-16T00:31:09.014Z,1024.59
2019-02-16T00:32:09.045Z,1024.58
2019-02-16T00:33:09.079Z,1024.57
2019-02-16T00:34:09.107Z,1024.55
2019-02-16T00:35:09.154Z,1024.55
2019-02-16T00:36:09.169Z,1024.52
2019-02-16T00:37:09.199Z,1024.51
2019-02-16T00:38:09.233Z,1024.52
2019-02-16T00:39:09.261Z,1024.54
2019-02-16T00:40:09.295Z,1024.51
2019-02-16T00:41:09.336Z,1024.50
2019-02-16T00:42:09.353Z,1024.47
2019-02-16T00:43:09.389Z,1024.50
2019-02-16T00:44:09.426Z,1024.48
2019-02-16T00:45:09.447Z,1024.47
2019-02-16T00:46:09.476Z,1024.46
2019-02-16T00:47:09.516Z,1024.46
2019-02-16T00:48:09.539Z,1024.45
2019-02-16T00:49:09.570Z,1024.47
2019-02-16T00:50:09.603Z,1024.45
2019-02-16T00:51:13.449Z,1024.48
2019-02-16T00:52:09.664Z,1024.44
2019-02-16T00:53:09.692Z,1024.43
2019-02-16T00:54:09.727Z,1024.44
2019-02-16T00:55:09.756Z,1024.45
2019-02-16T00:56:09.792Z,1024.44
2019-02-16T00:57:09.817Z,1024.48
2019-02-16T00:58:09.876Z,1024.47
2019-02-16T00:59:09.879Z,1024.41
2019-02-16T01:00:09.909Z,1024.46
2019-02-16T01:01:09.940Z,1024.42
2019-02-16T01:02:09.971Z,1024.40
2019-02-16T01:03:10.003Z,1024.39
2019-02-16T01:04:10.046Z,1024.38
2019-02-16T01:05:10.062Z,1024.40
2019-02-16T01:06:10.094Z,1024.36
2019-02-16T01:07:10.125Z,1024.35
2019-02-16T01:08:10.156Z,1024.32
2019-02-16T01:09:10.207Z,1024.25
2019-02-16T01:10:10.217Z,1024.27
2019-02-16T01:11:10.248Z,1024.26
2019-02-16T01:12:10.278Z,1024.21
2019-02-16T01:13:10.307Z,1024.22
2019-02-16T01:14:10.339Z,1024.25
2019-02-16T01:15:10.370Z,1024.20
2019-02-16T01:16:10.401Z,1024.16
2019-02-16T01:17:10.430Z,1024.16
2019-02-16T01:18:10.461Z,1024.14
2019-02-16T01:19:10.492Z,1024.12
2019-02-16T01:20:10.524Z,1024.11
2019-02-16T01:21:10.553Z,1024.09
2019-02-16T01:22:10.584Z,1024.07
2019-02-16T01:23:10.616Z,1024.09
2019-02-16T01:24:10.647Z,1024.09
2019-02-16T01:25:10.676Z,1024.05
2019-02-16T01:26:10.707Z,1024.04
2019-02-16T01:27:10.737Z,1024.02
2019-02-16T01:28:10.767Z,1024.00
2019-02-16T01:29:10.798Z,1023.98
2019-02-16T01:30:10.830Z,1024.02
2019-02-16T01:31:10.859Z,1023.97
2019-02-16T01:32:10.891Z,1023.94
2019-02-16T01:33:10.920Z,1023.97
2019-02-16T01:34:10.952Z,1023.93
2019-02-16T01:35:10.981Z,1023.97
2019-02-16T01:36:11.013Z,1023.92
2019-02-16T01:37:11.042Z,1023.94
2019-02-16T01:38:11.076Z,1023.89
2019-02-16T01:39:11.104Z,1023.93
2019-02-16T01:40:11.140Z,1023.95
2019-02-16T01:41:11.163Z,1023.88
2019-02-16T01:42:11.196Z,1023.85
2019-02-16T01:43:11.225Z,1023.86
2019-02-16T01:44:11.256Z,1023.88
2019-02-16T01:45:11.286Z,1023.84
2019-02-16T01:46:11.316Z,1023.85
2019-02-16T01:47:11.347Z,1023.83
2019-02-16T01:48:11.425Z,1023.84
2019-02-16T01:49:11.411Z,1023.79
2019-02-16T01:50:11.439Z,1023.79
2019-02-16T01:51:11.469Z,1023.80
2019-02-16T01:52:11.498Z,1023.80
2019-02-16T01:53:11.528Z,1023.79
2019-02-16T01:54:11.567Z,1023.74
2019-02-16T01:55:11.590Z,1023.72
2019-02-16T01:56:11.623Z,1023.69
2019-02-16T01:57:11.650Z,1023.70
2019-02-16T01:58:11.680Z,1023.69
2019-02-16T01:59:11.710Z,1023.69
2019-02-16T02:00:11.741Z,1023.71
2019-02-16T02:01:11.770Z,1023.67
2019-02-16T02:02:11.804Z,1023.65
2019-02-16T02:03:11.850Z,1023.68
2019-02-16T02:04:11.864Z,1023.61
2019-02-16T02:05:11.892Z,1023.61
2019-02-16T02:06:11.924Z,1023.62
2019-02-16T02:07:11.952Z,1023.60
2019-02-16T02:08:11.984Z,1023.58
2019-02-16T02:09:12.344Z,1023.59
2019-02-16T02:10:12.043Z,1023.60
2019-02-16T02:11:12.073Z,1023.53
2019-02-16T02:12:12.104Z,1023.56
2019-02-16T02:13:12.137Z,1023.57
2019-02-16T02:14:12.166Z,1023.57
2019-02-16T02:15:12.198Z,1023.50
2019-02-16T02:16:12.227Z,1023.55
2019-02-16T02:17:12.255Z,1023.54
2019-02-16T02:18:12.286Z,1023.49
2019-02-16T02:19:12.317Z,1023.50
2019-02-16T02:20:12.347Z,1023.49
2019-02-16T02:21:12.376Z,1023.47
2019-02-16T02:22:12.406Z,1023.44
2019-02-16T02:23:12.438Z,1023.46
2019-02-16T02:24:12.467Z,1023.48
2019-02-16T02:25:12.496Z,1023.44
2019-02-16T02:26:12.532Z,1023.46
2019-02-16T02:27:12.561Z,1023.46
2019-02-16T02:28:12.589Z,1023.46
2019-02-16T02:29:12.619Z,1023.43
2019-02-16T02:30:12.649Z,1023.42
2019-02-16T02:31:12.680Z,1023.42
2019-02-16T02:32:12.742Z,1023.42
2019-02-16T02:33:12.740Z,1023.40
2019-02-16T02:34:12.769Z,1023.44
2019-02-16T02:35:12.799Z,1023.43
2019-02-16T02:36:12.842Z,1023.42
2019-02-16T02:37:12.859Z,1023.39
2019-02-16T02:38:12.892Z,1023.35
2019-02-16T02:39:12.919Z,1023.40
2019-02-16T02:40:12.950Z,1023.42
2019-02-16T02:41:12.981Z,1023.38
2019-02-16T02:42:13.011Z,1023.37
2019-02-16T02:43:13.040Z,1023.36
2019-02-16T02:44:13.072Z,1023.30
2019-02-16T02:45:13.111Z,1023.29
2019-02-16T02:46:13.131Z,1023.25
2019-02-16T02:47:13.163Z,1023.29
2019-02-16T02:48:13.231Z,1023.29
2019-02-16T02:49:13.223Z,1023.23
2019-02-16T02:50:13.251Z,1023.25
2019-02-16T02:51:13.282Z,1023.25
2019-02-16T02:52:13.313Z,1023.25
2019-02-16T02:53:13.342Z,1023.22
2019-02-16T02:54:13.373Z,1023.22
2019-02-16T02:55:13.403Z,1023.20
2019-02-16T02:56:13.440Z,1023.19
2019-02-16T02:57:13.464Z,1023.22
2019-02-16T02:58:13.493Z,1023.19
2019-02-16T02:59:13.522Z,1023.20
2019-02-16T03:00:13.564Z,1023.18
2019-02-16T03:01:13.583Z,1023.17
2019-02-16T03:02:13.615Z,1023.18
2019-02-16T03:03:13.645Z,1023.17
2019-02-16T03:04:13.673Z,1023.16
2019-02-16T03:05:13.705Z,1023.18
2019-02-16T03:06:13.737Z,1023.12
2019-02-16T03:07:13.764Z,1023.14
2019-02-16T03:08:13.794Z,1023.13
2019-02-16T03:09:13.824Z,1023.16
2019-02-16T03:10:13.855Z,1023.16
2019-02-16T03:11:13.885Z,1023.18
2019-02-16T03:12:13.917Z,1023.15
2019-02-16T03:13:13.944Z,1023.07
2019-02-16T03:14:13.976Z,1023.15
2019-02-16T03:15:14.005Z,1023.10
2019-02-16T03:16:14.035Z,1023.10
2019-02-16T03:17:14.065Z,1023.13
2019-02-16T03:18:14.095Z,1023.10
2019-02-16T03:19:14.127Z,1023.08
2019-02-16T03:20:14.157Z,1023.12
2019-02-16T03:21:14.185Z,1023.08
2019-02-16T03:22:14.215Z,1023.11
2019-02-16T03:23:14.263Z,1023.10
2019-02-16T03:24:14.276Z,1023.10
2019-02-16T03:25:14.306Z,1023.14
2019-02-16T03:26:14.337Z,1023.07
2019-02-16T03:27:14.365Z,1023.06
2019-02-16T03:28:14.396Z,1023.11
2019-02-16T03:29:14.423Z,1023.07
2019-02-16T03:30:14.457Z,1023.04
2019-02-16T03:31:14.488Z,1023.03
2019-02-16T03:32:14.522Z,1023.03
2019-02-16T03:33:14.546Z,1023.02
2019-02-16T03:34:14.576Z,1023.00
2019-02-16T03:35:14.609Z,1023.04
2019-02-16T03:36:14.636Z,1023.02
2019-02-16T03:37:14.667Z,1022.99
2019-02-16T03:38:14.694Z,1023.03
2019-02-16T03:39:14.727Z,1023.05
2019-02-16T03:40:14.754Z,1023.07
2019-02-16T03:41:14.792Z,1023.03
2019-02-16T03:42:14.814Z,1023.04
2019-02-16T03:43:14.843Z,1023.00
2019-02-16T03:44:14.874Z,1023.02
2019-02-16T03:45:14.903Z,1022.99
2019-02-16T03:46:14.932Z,1023.02
2019-02-16T03:47:14.965Z,1023.01
2019-02-16T03:48:14.994Z,1022.98
2019-02-16T03:49:15.022Z,1023.03
2019-02-16T03:50:15.052Z,1023.05
2019-02-16T03:51:15.084Z,1023.01
2019-02-16T03:52:15.111Z,1023.00
2019-02-16T03:53:15.157Z,1023.00
2019-02-16T03:54:15.170Z,1022.98
2019-02-16T03:55:15.201Z,1022.98
2019-02-16T03:56:15.230Z,1022.98
2019-02-16T03:57:15.261Z,1022.99
2019-02-16T03:58:15.290Z,1022.91
2019-02-16T03:59:15.322Z,1022.93
2019-02-16T04:00:15.349Z,1022.91
2019-02-16T04:01:15.377Z,1022.96
2019-02-16T04:02:15.412Z,1022.95
2019-02-16T04:03:15.452Z,1022.95
2019-02-16T04:04:15.469Z,1022.96
2019-02-16T04:05:15.497Z,1022.98
2019-02-16T04:06:15.527Z,1022.98
2019-02-16T04:07:15.557Z,1022.97
2019-02-16T04:08:15.587Z,1022.96
2019-02-16T04:09:15.615Z,1022.98
2019-02-16T04:10:15.645Z,1022.95
2019-02-16T04:11:15.675Z,1022.93
2019-02-16T04:12:15.802Z,1022.95
2019-02-16T04:13:15.735Z,1022.97
2019-02-16T04:14:15.765Z,1022.89
2019-02-16T04:15:15.794Z,1022.89
2019-02-16T04:16:15.824Z,1022.86
2019-02-16T04:17:15.855Z,1022.84
2019-02-16T04:18:15.883Z,1022.78
2019-02-16T04:19:15.915Z,1022.78
2019-02-16T04:20:15.942Z,1022.73
2019-02-16T04:21:15.972Z,1022.75
2019-02-16T04:22:24.165Z,1022.71
2019-02-16T04:23:16.034Z,1022.71
2019-02-16T04:24:16.060Z,1022.72
2019-02-16T04:25:16.088Z,1022.70
2019-02-16T04:26:16.138Z,1022.69
2019-02-16T04:27:16.149Z,1022.64
2019-02-16T04:28:16.186Z,1022.67
2019-02-16T04:29:16.222Z,1022.62
2019-02-16T04:30:16.237Z,1022.63
2019-02-16T04:31:16.268Z,1022.60
2019-02-16T04:32:16.297Z,1022.57
2019-02-16T04:33:16.326Z,1022.54
2019-02-16T04:34:16.360Z,1022.53
2019-02-16T04:35:16.386Z,1022.53
2019-02-16T04:36:16.507Z,1022.52
2019-02-16T04:37:16.445Z,1022.49
2019-02-16T04:38:16.472Z,1022.48
2019-02-16T04:39:16.503Z,1022.48
2019-02-16T04:40:16.535Z,1022.44
2019-02-16T04:41:16.560Z,1022.40
2019-02-16T04:42:16.590Z,1022.39
2019-02-16T04:43:16.621Z,1022.36
2019-02-16T04:44:16.660Z,1022.37
2019-02-16T04:45:16.678Z,1022.36
2019-02-16T04:46:16.709Z,1022.41
2019-02-16T04:47:16.738Z,1022.39
2019-02-16T04:48:16.771Z,1022.35
2019-02-16T04:49:16.796Z,1022.38
2019-02-16T04:50:16.829Z,1022.38
2019-02-16T04:51:16.855Z,1022.41
2019-02-16T04:52:16.894Z,1022.39
2019-02-16T04:53:16.917Z,1022.39
2019-02-16T04:54:16.943Z,1022.36
2019-02-16T04:55:16.976Z,1022.37
2019-02-16T04:56:17.002Z,1022.35
2019-02-16T04:57:17.031Z,1022.36
2019-02-16T04:58:17.061Z,1022.31
2019-02-16T04:59:17.090Z,1022.33
2019-02-16T05:00:17.124Z,1022.30
2019-02-16T05:01:17.153Z,1022.30
2019-02-16T05:02:17.177Z,1022.33
2019-02-16T05:03:17.206Z,1022.33
2019-02-16T05:04:17.236Z,1022.31
2019-02-16T05:05:17.265Z,1022.31
2019-02-16T05:06:17.294Z,1022.28
2019-02-16T05:07:17.323Z,1022.29
2019-02-16T05:08:17.356Z,1022.28
2019-02-16T05:09:17.381Z,1022.27
2019-02-16T05:10:17.412Z,1022.24
2019-02-16T05:11:17.440Z,1022.24
2019-02-16T05:12:17.470Z,1022.22
2019-02-16T05:13:17.499Z,1022.23
2019-02-16T05:14:17.530Z,1022.21
2019-02-16T05:15:17.556Z,1022.20
2019-02-16T05:16:17.585Z,1022.21
2019-02-16T05:17:17.618Z,1022.21
2019-02-16T05:18:17.678Z,1022.18
2019-02-16T05:19:17.673Z,1022.17
2019-02-16T05:20:17.705Z,1022.15
2019-02-16T05:21:17.735Z,1022.16
2019-02-16T05:22:17.759Z,1022.17
2019-02-16T05:23:17.791Z,1022.14
2019-02-16T05:24:17.820Z,1022.15
2019-02-16T05:25:17.847Z,1022.13
2019-02-16T05:26:17.879Z,1022.14
2019-02-16T05:27:17.910Z,1022.10
2019-02-16T05:28:17.935Z,1022.11
2019-02-16T05:29:17.966Z,1022.07
2019-02-16T05:30:17.993Z,1022.16
2019-02-16T05:31:18.023Z,1022.13
2019-02-16T05:32:18.053Z,1022.10
2019-02-16T05:33:18.079Z,1022.15
2019-02-16T05:34:18.109Z,1022.13
2019-02-16T05:35:18.143Z,1022.13
2019-02-16T05:36:18.171Z,1022.12
2019-02-16T05:37:18.197Z,1022.10
2019-02-16T05:38:18.231Z,1022.15
2019-02-16T05:39:18.256Z,1022.10
2019-02-16T05:40:18.285Z,1022.08
2019-02-16T05:41:18.312Z,1022.12
2019-02-16T05:42:18.343Z,1022.10
2019-02-16T05:43:18.412Z,1022.10
2019-02-16T05:44:18.402Z,1022.10
2019-02-16T05:45:18.429Z,1022.13
2019-02-16T05:46:18.458Z,1022.10
2019-02-16T05:47:18.489Z,1022.11
2019-02-16T05:48:18.517Z,1022.07
2019-02-16T05:49:18.548Z,1022.13
2019-02-16T05:50:18.575Z,1022.08
2019-02-16T05:51:18.603Z,1022.09
2019-02-16T05:52:18.633Z,1022.06
2019-02-16T05:53:20.238Z,1022.10
2019-02-16T05:54:18.692Z,1022.12
2019-02-16T05:55:18.719Z,1022.10
2019-02-16T05:56:18.752Z,1022.12
2019-02-16T05:57:18.780Z,1022.14
2019-02-16T05:58:18.809Z,1022.14
2019-02-16T05:59:18.837Z,1022.12
2019-02-16T06:00:18.872Z,1022.14
2019-02-16T06:01:18.894Z,1022.12
2019-02-16T06:02:18.923Z,1022.12
2019-02-16T06:03:18.953Z,1022.14
2019-02-16T06:04:18.982Z,1022.14
2019-02-16T06:05:19.012Z,1022.11
2019-02-16T06:06:19.041Z,1022.08
2019-02-16T06:07:19.070Z,1022.07
2019-02-16T06:08:19.101Z,1022.04
2019-02-16T06:09:19.147Z,1022.06
2019-02-16T06:10:19.162Z,1022.01
2019-02-16T06:11:19.187Z,1022.01
2019-02-16T06:12:19.218Z,1021.98
2019-02-16T06:13:19.243Z,1021.97
2019-02-16T06:14:19.272Z,1021.98
2019-02-16T06:15:19.307Z,1021.96
2019-02-16T06:16:19.332Z,1021.96
2019-02-16T06:17:19.361Z,1021.97
2019-02-16T06:18:19.389Z,1021.97
2019-02-16T06:19:19.418Z,1022.01
2019-02-16T06:20:19.447Z,1022.01
2019-02-16T06:21:19.480Z,1022.04
2019-02-16T06:22:19.506Z,1022.06
2019-02-16T06:23:19.534Z,1022.02
2019-02-16T06:24:19.566Z,1022.06
2019-02-16T06:25:19.595Z,1022.05
2019-02-16T06:26:19.621Z,1022.00
2019-02-16T06:27:19.651Z,1022.00
2019-02-16T06:28:19.679Z,1022.02
2019-02-16T06:29:19.707Z,1021.99
2019-02-16T06:30:19.744Z,1021.98
2019-02-16T06:31:19.767Z,1021.94
2019-02-16T06:32:19.794Z,1021.92
2019-02-16T06:33:19.824Z,1021.97
2019-02-16T06:34:19.855Z,1022.00
2019-02-16T06:35:19.883Z,1021.96
2019-02-16T06:36:19.912Z,1022.01
2019-02-16T06:37:19.940Z,1021.99
2019-02-16T06:38:19.969Z,1022.05
2019-02-16T06:39:19.998Z,1022.07
2019-02-16T06:40:20.028Z,1022.12
2019-02-16T06:41:20.056Z,1022.07
2019-02-16T06:42:20.084Z,1022.13
2019-02-16T06:43:20.114Z,1022.09
2019-02-16T06:44:20.146Z,1022.08
2019-02-16T06:45:20.171Z,1022.10
2019-02-16T06:46:20.202Z,1022.12
2019-02-16T06:47:20.230Z,1022.13
2019-02-16T06:48:20.258Z,1022.14
2019-02-16T06:49:20.288Z,1022.12
2019-02-16T06:50:20.321Z,1022.10
2019-02-16T06:51:20.346Z,1022.12
2019-02-16T06:52:20.376Z,1022.15
2019-02-16T06:53:20.403Z,1022.19
2019-02-16T06:54:20.434Z,1022.24
2019-02-16T06:55:20.462Z,1022.21
2019-02-16T06:56:20.492Z,1022.23
2019-02-16T06:57:20.519Z,1022.25
2019-02-16T06:58:20.548Z,1022.21
2019-02-16T06:59:20.577Z,1022.20
2019-02-16T07:00:20.606Z,1022.24
2019-02-16T07:01:20.637Z,1022.18
2019-02-16T07:02:20.667Z,1022.20
2019-02-16T07:03:20.693Z,1022.20
2019-02-16T07:04:20.729Z,1022.21
2019-02-16T07:05:20.751Z,1022.20
2019-02-16T07:06:20.780Z,1022.20
2019-02-16T07:07:20.809Z,1022.17
2019-02-16T07:08:20.842Z,1022.16
2019-02-16T07:09:20.867Z,1022.18
2019-02-16T07:10:20.899Z,1022.18
2019-02-16T07:11:20.925Z,1022.19
2019-02-16T07:12:20.956Z,1022.20
2019-02-16T07:13:20.983Z,1022.21
2019-02-16T07:14:21.011Z,1022.20
2019-02-16T07:15:21.043Z,1022.18
2019-02-16T07:16:21.068Z,1022.13
2019-02-16T07:17:21.098Z,1022.14
2019-02-16T07:18:21.128Z,1022.14
2019-02-16T07:19:21.157Z,1022.12
2019-02-16T07:20:21.191Z,1022.12
2019-02-16T07:21:21.213Z,1022.16
2019-02-16T07:22:21.243Z,1022.17
2019-02-16T07:23:22.755Z,1022.16
2019-02-16T07:24:21.300Z,1022.16
2019-02-16T07:25:21.328Z,1022.16
2019-02-16T07:26:21.359Z,1022.12
2019-02-16T07:27:21.388Z,1022.14
2019-02-16T07:28:21.464Z,1022.10
2019-02-16T07:29:21.445Z,1022.15
2019-02-16T07:30:21.474Z,1022.11
2019-02-16T07:31:21.504Z,1022.10
2019-02-16T07:32:21.532Z,1022.12
2019-02-16T07:33:21.560Z,1022.06
2019-02-16T07:34:21.598Z,1022.03
2019-02-16T07:35:21.620Z,1021.98
2019-02-16T07:36:22.121Z,1021.94
2019-02-16T07:37:21.676Z,1021.97
2019-02-16T07:38:21.706Z,1022.00
2019-02-16T07:39:21.737Z,1022.02
2019-02-16T07:40:21.764Z,1022.01
2019-02-16T07:41:21.792Z,1021.96
2019-02-16T07:42:21.823Z,1021.96
2019-02-16T07:43:21.851Z,1022.03
2019-02-16T07:44:21.880Z,1021.99
2019-02-16T07:45:21.908Z,1021.97
2019-02-16T07:46:21.938Z,1021.99
2019-02-16T07:47:21.967Z,1022.04
2019-02-16T07:48:21.999Z,1022.02
2019-02-16T07:49:23.231Z,1022.03
2019-02-16T07:50:22.060Z,1022.07
2019-02-16T07:51:22.084Z,1022.03
2019-02-16T07:52:22.115Z,1022.07
2019-02-16T07:53:30.957Z,1022.11
2019-02-16T07:54:22.169Z,1022.05
2019-02-16T07:55:22.201Z,1022.07
2019-02-16T07:56:22.228Z,1022.11
2019-02-16T07:57:22.259Z,1022.10
2019-02-16T07:58:22.286Z,1022.03
2019-02-16T07:59:22.315Z,1022.06
2019-02-16T08:00:22.344Z,1022.12
2019-02-16T08:01:22.372Z,1022.10
2019-02-16T08:02:22.402Z,1022.07
2019-02-16T08:03:22.431Z,1022.10
2019-02-16T08:04:22.461Z,1022.05
2019-02-16T08:05:22.488Z,1022.10
2019-02-16T08:06:22.518Z,1022.07
2019-02-16T08:07:22.546Z,1022.05
2019-02-16T08:08:22.575Z,1022.01
2019-02-16T08:09:22.603Z,1021.99
2019-02-16T08:10:22.679Z,1021.97
2019-02-16T08:11:22.663Z,1022.02
2019-02-16T08:12:22.692Z,1021.96
2019-02-16T08:13:22.719Z,1021.95
2019-02-16T08:14:22.751Z,1021.94
2019-02-16T08:15:22.779Z,1021.93
2019-02-16T08:16:22.810Z,1021.91
2019-02-16T08:17:22.836Z,1021.88
2019-02-16T08:18:22.865Z,1021.84
2019-02-16T08:19:23.179Z,1021.88
2019-02-16T08:20:22.938Z,1021.82
2019-02-16T08:21:22.953Z,1021.85
2019-02-16T08:22:22.984Z,1021.86
2019-02-16T08:23:23.014Z,1021.79
2019-02-16T08:24:23.042Z,1021.81
2019-02-16T08:25:23.070Z,1021.86
2019-02-16T08:26:23.105Z,1021.84
2019-02-16T08:27:23.134Z,1021.86
2019-02-16T08:28:23.167Z,1021.86
2019-02-16T08:29:23.189Z,1021.92
2019-02-16T08:30:23.222Z,1021.82
2019-02-16T08:31:23.248Z,1021.82
2019-02-16T08:32:23.278Z,1021.84
2019-02-16T08:33:23.313Z,1021.81
2019-02-16T08:34:23.335Z,1021.81
2019-02-16T08:35:23.366Z,1021.82
2019-02-16T08:36:23.395Z,1021.85
2019-02-16T08:37:23.433Z,1021.83
2019-02-16T08:38:23.454Z,1021.74
2019-02-16T08:39:23.487Z,1021.79
2019-02-16T08:40:23.513Z,1021.75
2019-02-16T08:41:23.541Z,1021.66
2019-02-16T08:42:23.571Z,1021.77
2019-02-16T08:43:23.602Z,1021.78
2019-02-16T08:44:23.638Z,1021.70
2019-02-16T08:45:23.663Z,1021.76
2019-02-16T08:46:23.691Z,1021.79
2019-02-16T08:47:23.720Z,1021.76
2019-02-16T08:48:23.752Z,1021.79
2019-02-16T08:49:23.779Z,1021.83
2019-02-16T08:50:23.808Z,1021.84
2019-02-16T08:51:23.840Z,1021.78
2019-02-16T08:52:23.869Z,1021.77
2019-02-16T08:53:23.899Z,1021.81
2019-02-16T08:54:23.928Z,1021.77
2019-02-16T08:55:23.959Z,1021.77
2019-02-16T08:56:23.990Z,1021.77
2019-02-16T08:57:24.021Z,1021.77
2019-02-16T08:58:24.047Z,1021.75
2019-02-16T08:59:24.080Z,1021.74
2019-02-16T09:00:24.108Z,1021.73
2019-02-16T09:01:24.137Z,1021.78
2019-02-16T09:02:24.167Z,1021.74
2019-02-16T09:03:24.199Z,1021.71
2019-02-16T09:04:24.229Z,1021.72
2019-02-16T09:05:24.259Z,1021.72
2019-02-16T09:06:24.291Z,1021.67
2019-02-16T09:07:24.318Z,1021.65
2019-02-16T09:08:24.351Z,1021.63
2019-02-16T09:09:24.378Z,1021.66
2019-02-16T09:10:24.409Z,1021.62
2019-02-16T09:11:24.440Z,1021.66
2019-02-16T09:12:24.469Z,1021.67
2019-02-16T09:13:24.502Z,1021.68
2019-02-16T09:14:24.531Z,1021.60
2019-02-16T09:15:24.560Z,1021.61
2019-02-16T09:16:24.592Z,1021.62
2019-02-16T09:17:24.622Z,1021.61
2019-02-16T09:18:24.657Z,1021.62
2019-02-16T09:19:24.686Z,1021.65
2019-02-16T09:20:24.715Z,1021.72
2019-02-16T09:21:24.743Z,1021.66
2019-02-16T09:22:24.778Z,1021.72
2019-02-16T09:23:24.810Z,1021.75
2019-02-16T09:24:24.837Z,1021.76
2019-02-16T09:25:24.871Z,1021.73
2019-02-16T09:26:24.899Z,1021.74
2019-02-16T09:27:24.929Z,1021.69
2019-02-16T09:28:24.961Z,1021.72
2019-02-16T09:29:24.992Z,1021.69
2019-02-16T09:30:25.038Z,1021.67
2019-02-16T09:31:25.056Z,1021.72
2019-02-16T09:32:25.097Z,1021.74
2019-02-16T09:33:25.122Z,1021.67
2019-02-16T09:34:25.147Z,1021.67
2019-02-16T09:35:25.179Z,1021.71
2019-02-16T09:36:25.214Z,1021.73
2019-02-16T09:37:25.242Z,1021.66
2019-02-16T09:38:25.277Z,1021.70
2019-02-16T09:39:25.322Z,1021.67
2019-02-16T09:40:25.337Z,1021.67
2019-02-16T09:41:25.371Z,1021.71
2019-02-16T09:42:25.405Z,1021.71
2019-02-16T09:43:25.433Z,1021.74
2019-02-16T09:44:25.478Z,1021.74
2019-02-16T09:45:25.496Z,1021.74
2019-02-16T09:46:25.536Z,1021.75
2019-02-16T09:47:25.562Z,1021.76
2019-02-16T09:48:25.593Z,1021.77
2019-02-16T09:49:25.630Z,1021.75
2019-02-16T09:50:25.658Z,1021.79
2019-02-16T09:51:25.702Z,1021.79
2019-02-16T09:52:25.723Z,1021.75
2019-02-16T09:53:25.755Z,1021.73
2019-02-16T09:54:25.787Z,1021.76
2019-02-16T09:55:25.819Z,1021.73
2019-02-16T09:56:25.852Z,1021.73
2019-02-16T09:57:25.884Z,1021.71
2019-02-16T09:58:25.918Z,1021.73
2019-02-16T09:59:25.951Z,1021.71
2019-02-16T10:00:25.986Z,1021.69
2019-02-16T10:01:26.042Z,1021.71
2019-02-16T10:02:26.048Z,1021.68
2019-02-16T10:03:26.083Z,1021.67
2019-02-16T10:04:26.117Z,1021.65
2019-02-16T10:05:26.152Z,1021.68
2019-02-16T10:06:26.192Z,1021.66
2019-02-16T10:07:26.213Z,1021.67
2019-02-16T10:08:26.247Z,1021.73
2019-02-16T10:09:26.280Z,1021.77
2019-02-16T10:10:26.319Z,1021.77
2019-02-16T10:11:26.348Z,1021.73
2019-02-16T10:12:26.382Z,1021.75
2019-02-16T10:13:26.420Z,1021.74
2019-02-16T10:14:26.449Z,1021.72
2019-02-16T10:15:26.484Z,1021.75
2019-02-16T10:16:26.520Z,1021.72
2019-02-16T10:17:26.555Z,1021.75
2019-02-16T10:18:26.590Z,1021.77
2019-02-16T10:19:26.625Z,1021.72
2019-02-16T10:20:26.663Z,1021.88
2019-02-16T10:21:26.704Z,1021.76
2019-02-16T10:22:26.736Z,1021.74
2019-02-16T10:23:26.772Z,1021.76
2019-02-16T10:24:26.811Z,1021.77
2019-02-16T10:25:26.848Z,1021.73
2019-02-16T10:26:26.895Z,1021.76
2019-02-16T10:27:26.928Z,1021.76
2019-02-16T10:28:26.965Z,1021.82
2019-02-16T10:29:27.008Z,1021.75
2019-02-16T10:30:27.045Z,1021.79
2019-02-16T10:31:27.087Z,1021.72
2019-02-16T10:32:27.127Z,1021.75
2019-02-16T10:33:27.168Z,1021.73
2019-02-16T10:34:27.210Z,1021.74
2019-02-16T10:35:27.251Z,1021.76
2019-02-16T10:36:29.220Z,1021.74
2019-02-16T10:37:27.338Z,1021.74
2019-02-16T10:38:27.381Z,1021.73
2019-02-16T10:39:27.424Z,1021.82
2019-02-16T10:40:27.468Z,1021.91
2019-02-16T10:41:27.511Z,1022.06
2019-02-16T10:42:27.558Z,1022.02
2019-02-16T10:43:27.601Z,1022.00
2019-02-16T10:44:27.650Z,1022.00
2019-02-16T10:45:27.691Z,1022.04
2019-02-16T10:46:27.739Z,1021.95
2019-02-16T10:47:27.783Z,1021.95
2019-02-16T10:48:27.828Z,1021.93
2019-02-16T10:49:27.876Z,1021.86
2019-02-16T10:50:27.923Z,1021.84
2019-02-16T10:51:27.972Z,1021.88
2019-02-16T10:52:28.015Z,1021.84
2019-02-16T10:53:28.062Z,1021.83
2019-02-16T10:54:29.690Z,1021.80
2019-02-16T10:55:28.155Z,1021.80
2019-02-16T10:56:28.203Z,1021.79
2019-02-16T10:57:28.255Z,1021.74
2019-02-16T10:58:28.300Z,1021.76
2019-02-16T10:59:28.347Z,1021.76
2019-02-16T11:00:28.400Z,1021.77
2019-02-16T11:01:28.443Z,1021.78
2019-02-16T11:02:28.494Z,1021.75
2019-02-16T11:03:28.539Z,1021.73
2019-02-16T11:04:37.664Z,1021.76
2019-02-16T11:05:28.636Z,1021.71
2019-02-16T11:06:28.686Z,1021.69
2019-02-16T11:07:28.735Z,1021.71
2019-02-16T11:08:28.783Z,1021.77
2019-02-16T11:09:28.833Z,1021.76
2019-02-16T11:10:28.880Z,1021.76
2019-02-16T11:11:28.930Z,1021.75
2019-02-16T11:12:28.979Z,1021.72
2019-02-16T11:13:29.035Z,1021.77
2019-02-16T11:14:29.077Z,1021.80
2019-02-16T11:15:30.458Z,1021.84
2019-02-16T11:16:29.178Z,1021.79
2019-02-16T11:17:29.226Z,1021.88
2019-02-16T11:18:29.277Z,1021.83
2019-02-16T11:19:29.326Z,1021.85
2019-02-16T11:20:29.375Z,1021.82
2019-02-16T11:21:29.425Z,1021.86
2019-02-16T11:22:29.475Z,1021.81
2019-02-16T11:23:29.524Z,1021.86
2019-02-16T11:24:35.856Z,1021.80
2019-02-16T11:25:29.622Z,1021.79
2019-02-16T11:26:29.674Z,1021.78
2019-02-16T11:27:29.726Z,1021.77
2019-02-16T11:28:29.773Z,1021.77
2019-02-16T11:29:29.843Z,1021.79
2019-02-16T11:30:29.874Z,1021.82
2019-02-16T11:31:29.932Z,1021.75
2019-02-16T11:32:29.975Z,1021.79
2019-02-16T11:33:30.025Z,1021.78
2019-02-16T11:34:30.076Z,1021.81
2019-02-16T11:35:30.125Z,1021.77
2019-02-16T11:36:30.177Z,1021.79
2019-02-16T11:37:30.228Z,1021.74
2019-02-16T11:38:30.278Z,1021.74
2019-02-16T11:39:30.328Z,1021.71
2019-02-16T11:40:30.380Z,1021.74
2019-02-16T11:41:30.430Z,1021.69
2019-02-16T11:42:30.480Z,1021.71
2019-02-16T11:43:30.528Z,1021.71
2019-02-16T11:44:30.582Z,1021.72
2019-02-16T11:45:32.615Z,1021.68
2019-02-16T11:46:30.681Z,1021.62
2019-02-16T11:47:30.731Z,1021.59
2019-02-16T11:48:30.786Z,1021.58
2019-02-16T11:49:30.832Z,1021.55
2019-02-16T11:50:30.884Z,1021.53
2019-02-16T11:51:30.933Z,1021.56
2019-02-16T11:52:30.984Z,1021.60
2019-02-16T11:53:31.032Z,1021.54
2019-02-16T11:54:31.087Z,1021.56
2019-02-16T11:55:31.135Z,1021.52
2019-02-16T11:56:31.183Z,1021.54
2019-02-16T11:57:31.231Z,1021.53
2019-02-16T11:58:31.280Z,1021.53
2019-02-16T11:59:31.331Z,1021.48
2019-02-16T12:00:31.381Z,1021.46
2019-02-16T12:01:31.429Z,1021.45
2019-02-16T12:02:39.435Z,1021.49
2019-02-16T12:03:31.539Z,1021.37
2019-02-16T12:04:31.577Z,1021.38
2019-02-16T12:05:31.625Z,1021.38